N541DF LLHZ-LLHZ

Flight info

Callsign N541DF
Flight time 0h 6m
Altitude 800
Route CVFR
Aircraft SR22/L-SDE/C

Departure

Time 2026-04-26 15:40
Airport Herzliya Airport (LLHZ)

Arrival

Time 2026-04-26 15:46
Airport Herzliya Airport (LLHZ)
Time Latitude Longitude Altitude Speed Heading
2026-04-26 15:36 32.17862 34.83844 123 ft 0 kts 290°
2026-04-26 15:38 32.17863 34.83842 122 ft 2 kts 289°
2026-04-26 15:38 32.17879 34.83842 120 ft 2 kts 77°
2026-04-26 15:38 32.17880 34.83850 121 ft 0 kts 80°
2026-04-26 15:39 32.17881 34.83855 122 ft 5 kts 66°
2026-04-26 15:39 32.17914 34.83850 125 ft 0 kts 289°
2026-04-26 15:40 32.17932 34.83793 122 ft 37 kts 290°
2026-04-26 15:40 32.18086 34.83255 168 ft 87 kts 285°
2026-04-26 15:40 32.18356 34.82637 495 ft 91 kts 331°
2026-04-26 15:40 32.19041 34.82767 733 ft 109 kts 12°
2026-04-26 15:41 32.19389 34.83543 863 ft 141 kts 110°
2026-04-26 15:41 32.18925 34.84597 807 ft 138 kts 136°
2026-04-26 15:41 32.18185 34.84641 594 ft 98 kts 218°
2026-04-26 15:41 32.17896 34.84032 228 ft 84 kts 267°
2026-04-26 15:42 32.17988 34.83615 114 ft 73 kts 287°
2026-04-26 15:42 32.18137 34.83082 129 ft 79 kts 285°
2026-04-26 15:42 32.18536 34.82586 364 ft 111 kts
2026-04-26 15:42 32.19271 34.82968 701 ft 119 kts 31°
2026-04-26 15:43 32.19290 34.83961 815 ft 146 kts 113°
2026-04-26 15:43 32.18774 34.84956 798 ft 132 kts 135°
2026-04-26 15:43 32.17842 34.84337 319 ft 87 kts 265°
2026-04-26 15:44 32.17966 34.83690 120 ft 73 kts 287°
2026-04-26 15:44 32.18418 34.82550 512 ft 94 kts 354°
2026-04-26 15:44 32.19126 34.82820 760 ft 113 kts 15°
2026-04-26 15:45 32.18955 34.84387 733 ft 129 kts 124°
2026-04-26 15:45 32.18598 34.85336 836 ft 122 kts 126°
2026-04-26 15:46 32.17635 34.84822 433 ft 81 kts 285°
2026-04-26 15:46 32.17807 34.84217 249 ft 75 kts 284°
2026-04-26 15:46 32.17968 34.83680 117 ft 63 kts 285°
2026-04-26 15:46 32.18051 34.83386 103 ft 44 kts 290°
2026-04-26 15:47 32.18020 34.83367 106 ft 20 kts 110°